Time;durP1;ratioP1;P1;durP2;ratioP2;P2;SDS_P1;SDS_P2;PMS_P1;PMS_P2;Temp;Humidity;BMP_temperature;BMP_pressure;BME280_temperature;BME280_humidity;BME280_pressure;Samples;Min_cycle;Max_cycle;Signal;HPM_P1;HPM_P2
2022/07/17 00:00:33;;;;;;;3.80;1.50;;;;;23.90;101573.00;;;;2070237;28;20689;-57
2022/07/17 00:01:33;;;;;;;3.80;1.37;;;;;23.90;101571.00;;;;2069179;28;20686;-57
2022/07/17 00:02:33;;;;;;;4.53;1.30;;;;;23.90;101577.00;;;;2070439;28;20909;-56
2022/07/17 00:03:34;;;;;;;2.80;1.07;;;;;23.90;101576.00;;;;2070542;28;20578;-57
2022/07/17 00:04:34;;;;;;;2.10;1.20;;;;;23.90;101575.00;;;;2075873;28;20876;-57
2022/07/17 00:05:35;;;;;;;7.10;1.67;;;;;23.90;101566.00;;;;2077790;28;20213;-57
2022/07/17 00:06:35;;;;;;;2.70;1.40;;;;;23.90;101451.00;;;;2077569;28;20280;-57
2022/07/17 00:07:35;;;;;;;2.00;1.20;;;;;23.90;101570.00;;;;2076898;28;20648;-57
2022/07/17 00:08:36;;;;;;;2.07;1.10;;;;;23.90;101568.00;;;;2077848;28;20589;-57
2022/07/17 00:09:36;;;;;;;2.03;1.10;;;;;23.90;101573.00;;;;2078006;28;20213;-55
2022/07/17 00:10:42;;;;;;;3.17;1.40;;;;;23.90;101576.00;;;;2078412;28;20201;-55
2022/07/17 00:11:42;;;;;;;2.58;1.20;;;;;23.90;101567.00;;;;2078549;28;20232;-57
2022/07/17 00:12:43;;;;;;;1.42;1.05;;;;;23.90;101567.00;;;;2078479;28;20202;-55
2022/07/17 00:13:44;;;;;;;2.60;1.00;;;;;23.90;101571.00;;;;2077823;28;20209;-57
2022/07/17 00:14:44;;;;;;;2.60;1.20;;;;;23.90;101564.00;;;;2077749;28;20705;-56
2022/07/17 00:15:44;;;;;;;3.50;1.20;;;;;23.80;101576.00;;;;2078502;28;20220;-56
2022/07/17 00:16:45;;;;;;;2.20;1.10;;;;;23.80;101568.00;;;;2078656;28;20317;-57
2022/07/17 00:17:45;;;;;;;3.33;1.20;;;;;23.80;101565.00;;;;2076719;28;20249;-57
2022/07/17 00:18:45;;;;;;;2.33;1.47;;;;;23.80;101570.00;;;;2078143;28;20216;-56
2022/07/17 00:19:46;;;;;;;2.73;1.20;;;;;23.80;101538.00;;;;2078463;28;20206;-56
2022/07/17 00:20:46;;;;;;;2.83;1.50;;;;;23.80;101568.00;;;;2077932;28;20220;-57
2022/07/17 00:21:46;;;;;;;2.73;1.20;;;;;23.80;101562.00;;;;2069477;28;20238;-56
2022/07/17 00:22:47;;;;;;;1.77;1.07;;;;;23.80;101566.00;;;;2077579;28;20220;-55
2022/07/17 00:23:47;;;;;;;1.70;1.00;;;;;23.90;101560.00;;;;2078358;28;20213;-56
2022/07/17 00:24:47;;;;;;;3.73;1.20;;;;;23.90;101560.00;;;;2078446;28;20275;-55
2022/07/17 00:25:48;;;;;;;2.97;1.10;;;;;23.80;101550.00;;;;2080123;28;20217;-55
2022/07/17 00:26:49;;;;;;;3.10;1.20;;;;;23.80;101551.00;;;;2079906;28;20213;-60
2022/07/17 00:27:49;;;;;;;1.77;1.00;;;;;23.80;101551.00;;;;2079015;28;20213;-57
2022/07/17 00:28:50;;;;;;;2.17;1.50;;;;;23.80;101558.00;;;;2079910;28;20232;-56
2022/07/17 00:29:50;;;;;;;2.17;1.10;;;;;23.80;101552.00;;;;2080243;28;20237;-57
2022/07/17 00:30:50;;;;;;;2.97;1.17;;;;;23.80;101552.00;;;;2078168;28;20271;-56
2022/07/17 00:31:51;;;;;;;2.20;1.17;;;;;23.80;101547.00;;;;2079880;28;20275;-57
2022/07/17 00:32:51;;;;;;;3.90;1.50;;;;;23.80;101552.00;;;;2079612;28;20308;-56
2022/07/17 00:33:51;;;;;;;1.60;1.20;;;;;23.80;101557.00;;;;2079952;28;20217;-56
2022/07/17 00:34:52;;;;;;;2.10;1.17;;;;;23.70;101555.00;;;;2072629;28;20221;-57
2022/07/17 00:35:52;;;;;;;2.00;0.97;;;;;23.70;101557.00;;;;2072040;28;20301;-57
2022/07/17 00:36:52;;;;;;;2.27;1.23;;;;;23.70;101559.00;;;;2071739;28;20214;-56
2022/07/17 00:37:53;;;;;;;2.00;1.07;;;;;23.70;101560.00;;;;2070317;28;20252;-56
2022/07/17 00:38:53;;;;;;;3.07;1.70;;;;;23.80;101565.00;;;;2070935;28;20210;-56
2022/07/17 00:39:54;;;;;;;2.60;1.43;;;;;23.70;101565.00;;;;2071200;28;20214;-56
2022/07/17 00:40:57;;;;;;;2.13;1.20;;;;;23.70;101581.00;;;;2065652;28;20210;-57
2022/07/17 00:41:57;;;;;;;2.45;1.35;;;;;23.70;101569.00;;;;2070973;28;20214;-56
2022/07/17 00:42:57;;;;;;;2.33;1.30;;;;;23.80;101562.00;;;;2078403;28;20217;-56
2022/07/17 00:44:08;;;;;;;2.40;1.10;;;;;23.80;101563.00;;;;2079892;28;20210;-56
2022/07/17 00:45:09;;;;;;;3.35;1.20;;;;;23.80;101567.00;;;;2079509;28;20205;-57
2022/07/17 00:46:10;;;;;;;5.07;1.70;;;;;23.70;101568.00;;;;2079668;28;20300;-57
2022/07/17 00:47:14;;;;;;;2.50;1.33;;;;;23.70;101567.00;;;;2079811;28;20484;-57
2022/07/17 00:48:14;;;;;;;2.10;1.30;;;;;23.70;101570.00;;;;2079565;28;21193;-56
2022/07/17 00:49:15;;;;;;;2.87;1.37;;;;;23.70;101559.00;;;;2079849;28;20217;-56
2022/07/17 00:50:15;;;;;;;1.53;1.10;;;;;23.70;101567.00;;;;2079710;28;20202;-57
2022/07/17 00:51:15;;;;;;;2.30;1.23;;;;;23.70;101566.00;;;;2068874;28;20717;-55
2022/07/17 00:52:16;;;;;;;1.77;1.13;;;;;23.70;101565.00;;;;2071125;28;20202;-57
2022/07/17 00:53:17;;;;;;;3.50;1.50;;;;;23.70;101573.00;;;;2080016;28;20205;-56
2022/07/17 00:54:17;;;;;;;2.60;1.10;;;;;23.70;101565.00;;;;2079645;28;20459;-56
2022/07/17 00:55:18;;;;;;;3.43;1.50;;;;;23.70;101568.00;;;;2079407;28;20224;-56
2022/07/17 00:56:20;;;;;;;2.90;1.33;;;;;23.70;101575.00;;;;2078270;28;20221;-56
2022/07/17 00:57:20;;;;;;;2.30;1.10;;;;;23.70;101571.00;;;;2077765;28;20218;-56
2022/07/17 00:58:23;;;;;;;2.10;1.40;;;;;23.70;101572.00;;;;2070734;28;20214;-56
2022/07/17 00:59:23;;;;;;;3.78;1.23;;;;;23.70;101563.00;;;;2070599;28;20300;-56
2022/07/17 01:00:23;;;;;;;3.00;1.40;;;;;23.70;101572.00;;;;2062649;28;20215;-56
2022/07/17 01:01:24;;;;;;;3.30;1.80;;;;;23.70;101567.00;;;;2070876;28;20272;-56
2022/07/17 01:02:24;;;;;;;2.60;1.20;;;;;23.70;101569.00;;;;2079527;28;25571;-56
2022/07/17 01:03:25;;;;;;;2.83;1.17;;;;;23.70;101565.00;;;;2079597;28;20225;-58
2022/07/17 01:04:25;;;;;;;2.27;1.20;;;;;23.70;101575.00;;;;2078401;28;20230;-55
2022/07/17 01:05:25;;;;;;;3.13;1.30;;;;;23.70;101561.00;;;;2078390;28;20283;-56
2022/07/17 01:06:26;;;;;;;3.07;1.10;;;;;23.60;101572.00;;;;2076449;28;25156;-56
2022/07/17 01:07:26;;;;;;;2.20;1.30;;;;;23.60;101543.00;;;;2078717;28;20217;-56
2022/07/17 01:08:26;;;;;;;5.23;1.33;;;;;23.60;101576.00;;;;2071015;28;20245;-56
2022/07/17 01:09:27;;;;;;;2.50;1.10;;;;;23.60;101571.00;;;;2070937;28;20222;-56
2022/07/17 01:10:28;;;;;;;2.53;1.50;;;;;23.60;101577.00;;;;2079608;28;20233;-57
2022/07/17 01:11:28;;;;;;;2.97;1.23;;;;;23.60;101567.00;;;;2079842;28;20217;-57
2022/07/17 01:12:28;;;;;;;2.40;1.40;;;;;23.60;101567.00;;;;2070688;28;20225;-57
2022/07/17 01:13:30;;;;;;;2.30;1.30;;;;;23.60;101565.00;;;;2070950;28;20281;-55
2022/07/17 01:14:30;;;;;;;3.65;1.40;;;;;23.60;101564.00;;;;2070656;28;20218;-57
2022/07/17 01:15:32;;;;;;;2.00;1.30;;;;;23.60;101559.00;;;;2070983;28;20772;-56
2022/07/17 01:16:32;;;;;;;1.77;0.90;;;;;23.60;101560.00;;;;2062682;28;20647;-56
2022/07/17 01:17:33;;;;;;;2.57;1.23;;;;;23.60;101558.00;;;;2062088;28;20291;-57
2022/07/17 01:18:33;;;;;;;2.10;1.23;;;;;23.60;101558.00;;;;2078834;28;20269;-55
2022/07/17 01:19:33;;;;;;;2.47;1.30;;;;;23.50;101565.00;;;;2078471;28;20240;-55
2022/07/17 01:20:35;;;;;;;2.10;1.50;;;;;23.50;101553.00;;;;2078190;28;20221;-57
2022/07/17 01:21:43;;;;;;;2.47;1.27;;;;;23.50;101550.00;;;;2069999;28;20214;-55
2022/07/17 01:22:47;;;;;;;4.38;1.50;;;;;23.60;101559.00;;;;2070962;28;20924;-55
2022/07/17 01:23:48;;;;;;;2.28;1.17;;;;;23.60;101563.00;;;;2078013;28;20733;-57
2022/07/17 01:24:48;;;;;;;2.47;1.40;;;;;23.60;101557.00;;;;2078059;28;20218;-57
2022/07/17 01:25:48;;;;;;;1.73;1.20;;;;;23.50;101554.00;;;;2079680;28;20209;-57
2022/07/17 01:26:49;;;;;;;2.33;1.20;;;;;23.50;101561.00;;;;2078860;28;20218;-57
2022/07/17 01:27:49;;;;;;;1.70;1.10;;;;;23.60;101567.00;;;;2078015;28;20220;-56
2022/07/17 01:28:50;;;;;;;3.03;1.43;;;;;23.60;101575.00;;;;2078920;28;20728;-58
2022/07/17 01:29:50;;;;;;;2.50;1.47;;;;;23.60;101570.00;;;;2078863;28;20282;-61
2022/07/17 01:30:51;;;;;;;3.53;1.37;;;;;23.60;101573.00;;;;2078842;28;20217;-56
2022/07/17 01:31:51;;;;;;;2.90;1.17;;;;;23.50;101565.00;;;;2078932;28;20271;-56
2022/07/17 01:32:52;;;;;;;2.00;1.20;;;;;23.50;101560.00;;;;2073960;28;20472;-56
2022/07/17 01:33:52;;;;;;;2.63;1.40;;;;;23.50;101565.00;;;;2085010;28;20224;-56
2022/07/17 01:34:52;;;;;;;2.40;1.10;;;;;23.50;101553.00;;;;2080875;28;20253;-56
2022/07/17 01:35:53;;;;;;;3.63;1.50;;;;;23.50;101555.00;;;;2079210;28;20271;-56
2022/07/17 01:36:53;;;;;;;3.40;1.30;;;;;23.50;101554.00;;;;2078511;28;20210;-57
2022/07/17 01:37:53;;;;;;;1.50;1.00;;;;;23.50;101556.00;;;;2078199;28;20307;-57
2022/07/17 01:38:56;;;;;;;3.03;1.47;;;;;23.50;101558.00;;;;2077789;28;20210;-56
2022/07/17 01:39:56;;;;;;;1.95;1.30;;;;;23.50;101555.00;;;;2070493;28;20214;-56
2022/07/17 01:40:57;;;;;;;1.57;1.17;;;;;23.50;101556.00;;;;2071769;28;20214;-56
2022/07/17 01:41:57;;;;;;;2.17;1.20;;;;;23.50;101553.00;;;;2070208;28;20279;-56
2022/07/17 01:42:57;;;;;;;1.93;1.30;;;;;23.50;101558.00;;;;2070426;28;20222;-56
2022/07/17 01:43:58;;;;;;;3.03;1.40;;;;;23.50;101556.00;;;;2071135;28;20225;-55
2022/07/17 01:44:58;;;;;;;2.10;1.30;;;;;23.50;101555.00;;;;2070591;28;20760;-58
2022/07/17 01:45:59;;;;;;;3.10;1.50;;;;;23.50;101554.00;;;;2070613;28;20469;-58
2022/07/17 01:46:59;;;;;;;1.60;1.30;;;;;23.50;101548.00;;;;2070590;28;20268;-56
2022/07/17 01:48:00;;;;;;;2.33;1.50;;;;;23.50;101551.00;;;;2078708;28;20226;-56
2022/07/17 01:49:03;;;;;;;2.00;1.50;;;;;23.50;101544.00;;;;2079524;28;20308;-56
2022/07/17 01:50:04;;;;;;;1.83;1.33;;;;;23.50;101552.00;;;;2078414;28;20244;-57
2022/07/17 01:51:04;;;;;;;2.50;1.40;;;;;23.50;101551.00;;;;2078665;28;20221;-56
2022/07/17 01:52:04;;;;;;;3.47;1.87;;;;;23.50;101558.00;;;;2079152;28;20690;-56
2022/07/17 01:53:05;;;;;;;3.50;1.80;;;;;23.50;101557.00;;;;2077119;28;20217;-56
2022/07/17 01:54:05;;;;;;;1.63;1.20;;;;;23.50;101556.00;;;;2079142;28;20217;-56
2022/07/17 01:55:06;;;;;;;1.97;1.07;;;;;23.50;101551.00;;;;2079352;28;20229;-56
2022/07/17 01:56:07;;;;;;;2.28;1.15;;;;;23.50;101551.00;;;;2079440;28;20577;-56
2022/07/17 01:57:07;;;;;;;3.97;1.80;;;;;23.10;101554.00;;;;2079423;28;20227;-56
2022/07/17 01:58:08;;;;;;;1.80;1.23;;;;;23.50;101552.00;;;;2078642;28;20228;-56
2022/07/17 01:59:08;;;;;;;1.90;1.30;;;;;23.40;101550.00;;;;2079045;28;20249;-56
2022/07/17 02:00:11;;;;;;;2.77;1.17;;;;;23.40;101546.00;;;;2078931;28;20217;-56
2022/07/17 02:01:12;;;;;;;1.98;1.27;;;;;23.40;101546.00;;;;2079518;28;20239;-56
2022/07/17 02:02:12;;;;;;;1.83;1.20;;;;;23.40;101547.00;;;;2079192;28;20677;-56
2022/07/17 02:03:13;;;;;;;2.80;1.57;;;;;23.40;101544.00;;;;2078649;28;20221;-56
2022/07/17 02:04:13;;;;;;;2.80;1.37;;;;;23.40;101533.00;;;;2078631;28;20674;-56
2022/07/17 02:05:13;;;;;;;5.40;1.50;;;;;23.40;101543.00;;;;2078543;28;20701;-56
2022/07/17 02:06:14;;;;;;;3.97;1.20;;;;;23.40;101551.00;;;;2078644;28;20218;-56
2022/07/17 02:07:14;;;;;;;2.20;1.40;;;;;23.40;101545.00;;;;2078873;28;20206;-56
2022/07/17 02:08:14;;;;;;;1.87;1.30;;;;;23.40;101547.00;;;;2078859;28;20304;-56
2022/07/17 02:09:15;;;;;;;2.80;1.70;;;;;23.40;101546.00;;;;2079349;28;20264;-56
2022/07/17 02:10:15;;;;;;;2.83;1.57;;;;;23.40;101544.00;;;;2079352;28;20205;-56
2022/07/17 02:11:15;;;;;;;1.67;1.07;;;;;23.30;101542.00;;;;2078882;28;20217;-56
2022/07/17 02:12:16;;;;;;;2.60;1.40;;;;;23.40;101544.00;;;;2078889;28;20723;-56
2022/07/17 02:13:16;;;;;;;2.70;1.43;;;;;23.40;101543.00;;;;2078964;28;20221;-56
2022/07/17 02:14:16;;;;;;;2.43;1.43;;;;;23.40;101540.00;;;;2079134;28;20213;-56
2022/07/17 02:15:17;;;;;;;3.27;1.20;;;;;23.30;101543.00;;;;2078528;28;20247;-57
2022/07/17 02:16:17;;;;;;;2.03;1.33;;;;;23.40;101548.00;;;;2078699;28;20549;-57
2022/07/17 02:17:17;;;;;;;1.83;1.20;;;;;23.40;101540.00;;;;2078372;28;20753;-56
2022/07/17 02:18:18;;;;;;;2.70;1.30;;;;;23.40;101543.00;;;;2077959;28;20703;-56
2022/07/17 02:19:18;;;;;;;2.03;1.40;;;;;23.30;101543.00;;;;2069839;28;20206;-61
2022/07/17 02:20:18;;;;;;;1.60;1.07;;;;;23.30;101540.00;;;;2078478;28;20224;-57
2022/07/17 02:21:19;;;;;;;1.70;1.30;;;;;23.30;101543.00;;;;2078858;28;20210;-57
2022/07/17 02:22:19;;;;;;;1.50;1.10;;;;;23.40;101547.00;;;;2076369;28;20210;-57
2022/07/17 02:23:19;;;;;;;2.47;1.40;;;;;23.30;101536.00;;;;2070979;28;20218;-57
2022/07/17 02:24:20;;;;;;;3.67;1.20;;;;;23.30;101543.00;;;;2078918;28;20279;-57
2022/07/17 02:25:20;;;;;;;3.10;1.30;;;;;23.30;101503.00;;;;2078856;28;20301;-57
2022/07/17 02:26:20;;;;;;;2.83;1.50;;;;;23.30;101551.00;;;;2078336;28;20213;-55
2022/07/17 02:27:21;;;;;;;2.13;1.20;;;;;23.30;101551.00;;;;2077552;28;20217;-56
2022/07/17 02:28:21;;;;;;;2.03;1.10;;;;;23.30;101547.00;;;;2078523;28;20225;-57
2022/07/17 02:29:21;;;;;;;2.70;1.37;;;;;23.30;101542.00;;;;2078870;28;20224;-57
2022/07/17 02:30:22;;;;;;;3.43;1.30;;;;;23.30;101539.00;;;;2079133;28;20214;-57
2022/07/17 02:31:22;;;;;;;3.10;1.67;;;;;23.30;101547.00;;;;2079097;28;20233;-57
2022/07/17 02:32:22;;;;;;;1.80;1.10;;;;;23.30;101556.00;;;;2069958;28;20751;-57
2022/07/17 02:33:23;;;;;;;2.30;1.13;;;;;23.30;101546.00;;;;2070429;28;20300;-56
2022/07/17 02:34:23;;;;;;;1.83;1.37;;;;;23.30;101541.00;;;;2079131;28;20359;-57
2022/07/17 02:35:23;;;;;;;1.70;1.37;;;;;23.30;101542.00;;;;2078938;28;20217;-56
2022/07/17 02:36:24;;;;;;;2.10;1.10;;;;;23.30;101549.00;;;;2078959;28;20224;-57
2022/07/17 02:37:24;;;;;;;3.13;1.80;;;;;23.30;101441.00;;;;2066366;28;20226;-57
2022/07/17 02:38:24;;;;;;;2.47;1.47;;;;;23.30;101549.00;;;;2071092;28;20344;-57
2022/07/17 02:39:25;;;;;;;2.87;1.33;;;;;23.20;101548.00;;;;2070851;28;20226;-57
2022/07/17 02:40:25;;;;;;;1.60;1.10;;;;;23.20;101540.00;;;;2070736;28;20229;-57
2022/07/17 02:41:26;;;;;;;1.97;1.30;;;;;23.20;101542.00;;;;2070350;28;20214;-57
2022/07/17 02:42:27;;;;;;;3.30;1.50;;;;;23.20;101548.00;;;;2070759;28;20214;-57
2022/07/17 02:43:27;;;;;;;2.25;1.40;;;;;23.20;101540.00;;;;2069902;28;20272;-58
2022/07/17 02:44:27;;;;;;;3.50;1.87;;;;;23.30;101550.00;;;;2070123;28;20210;-58
2022/07/17 02:45:28;;;;;;;2.53;1.43;;;;;23.20;101553.00;;;;2070896;28;20222;-56
2022/07/17 02:46:28;;;;;;;2.13;1.27;;;;;23.30;101551.00;;;;2070915;28;20248;-56
2022/07/17 02:47:33;;;;;;;1.73;1.37;;;;;23.30;101556.00;;;;2069940;28;20240;-56
2022/07/17 02:48:33;;;;;;;2.15;1.50;;;;;23.30;101554.00;;;;2070978;28;20210;-57
2022/07/17 02:49:33;;;;;;;2.00;1.13;;;;;23.20;101552.00;;;;2070122;28;20281;-56
2022/07/17 02:50:34;;;;;;;3.67;1.50;;;;;23.20;101547.00;;;;2070933;28;20234;-57
2022/07/17 02:51:34;;;;;;;2.27;1.30;;;;;23.30;101551.00;;;;2070781;28;20216;-56
2022/07/17 02:52:34;;;;;;;2.87;1.73;;;;;23.20;101552.00;;;;2070843;28;20264;-56
2022/07/17 02:53:35;;;;;;;2.43;1.40;;;;;23.20;101554.00;;;;2061951;28;20210;-56
2022/07/17 02:54:35;;;;;;;1.97;1.47;;;;;23.20;101548.00;;;;2061906;28;20207;-56
2022/07/17 02:55:36;;;;;;;2.27;1.43;;;;;23.20;101545.00;;;;2070715;28;20202;-56
2022/07/17 02:56:36;;;;;;;1.87;1.70;;;;;23.20;101548.00;;;;2069364;28;20210;-58
2022/07/17 02:57:37;;;;;;;2.47;1.17;;;;;23.20;101551.00;;;;2069829;28;20694;-59
2022/07/17 02:58:38;;;;;;;1.80;1.33;;;;;23.20;101560.00;;;;2069958;28;20792;-56
2022/07/17 02:59:38;;;;;;;2.03;1.13;;;;;23.20;101542.00;;;;2075719;28;20456;-56
2022/07/17 03:00:38;;;;;;;1.90;1.30;;;;;23.20;101545.00;;;;2078604;28;20220;-56
2022/07/17 03:01:39;;;;;;;2.57;1.10;;;;;23.10;101547.00;;;;2077313;28;20325;-59
2022/07/17 03:02:39;;;;;;;1.60;1.10;;;;;23.10;101542.00;;;;2076862;28;20233;-58
2022/07/17 03:03:40;;;;;;;2.67;1.60;;;;;23.10;101551.00;;;;2073362;28;20244;-56
2022/07/17 03:04:40;;;;;;;4.47;1.70;;;;;23.10;101542.00;;;;2076548;28;20221;-54
2022/07/17 03:05:41;;;;;;;4.13;1.60;;;;;23.10;101541.00;;;;2076542;28;20221;-57
2022/07/17 03:06:41;;;;;;;3.90;1.80;;;;;23.20;101544.00;;;;2077720;28;20221;-57
2022/07/17 03:07:43;;;;;;;5.07;1.40;;;;;23.20;101544.00;;;;2076804;28;20236;-54
2022/07/17 03:08:44;;;;;;;1.77;1.27;;;;;23.20;101548.00;;;;2077580;28;20593;-56
2022/07/17 03:09:44;;;;;;;3.03;1.33;;;;;23.20;101547.00;;;;2069344;28;20206;-56
2022/07/17 03:10:44;;;;;;;2.50;1.20;;;;;23.20;101623.00;;;;2069511;28;20229;-56
2022/07/17 03:11:45;;;;;;;3.17;1.50;;;;;23.10;101547.00;;;;2077623;28;20745;-56
2022/07/17 03:12:45;;;;;;;3.40;1.50;;;;;23.10;101561.00;;;;2078272;28;20217;-56
2022/07/17 03:13:45;;;;;;;1.97;1.50;;;;;23.10;101551.00;;;;2078413;28;20221;-56
2022/07/17 03:14:46;;;;;;;3.43;1.60;;;;;23.10;101558.00;;;;2078272;28;20202;-56
2022/07/17 03:15:46;;;;;;;4.10;1.40;;;;;23.10;101549.00;;;;2077301;28;20315;-56
2022/07/17 03:16:46;;;;;;;3.00;1.60;;;;;23.10;101549.00;;;;2069870;28;21898;-56
2022/07/17 03:17:47;;;;;;;3.53;1.90;;;;;23.10;101563.00;;;;2077002;28;20226;-56
2022/07/17 03:18:47;;;;;;;3.70;1.50;;;;;23.10;101555.00;;;;2069730;28;20218;-56
2022/07/17 03:19:47;;;;;;;2.27;1.57;;;;;23.10;101545.00;;;;2069777;28;20777;-56
2022/07/17 03:20:48;;;;;;;3.10;1.60;;;;;23.20;101549.00;;;;2078471;28;20682;-56
2022/07/17 03:21:48;;;;;;;2.10;1.40;;;;;23.10;101557.00;;;;2078758;28;20693;-56
2022/07/17 03:22:48;;;;;;;2.23;1.60;;;;;23.10;101557.00;;;;2076925;28;20752;-56
2022/07/17 03:23:49;;;;;;;3.03;1.60;;;;;23.10;101559.00;;;;2077592;28;20224;-57
2022/07/17 03:24:49;;;;;;;2.33;1.67;;;;;23.10;101566.00;;;;2072888;28;20220;-57
2022/07/17 03:25:50;;;;;;;2.20;1.85;;;;;23.10;101564.00;;;;2070378;28;20297;-56
2022/07/17 03:26:51;;;;;;;1.77;1.60;;;;;23.10;101580.00;;;;2069571;28;20706;-56
2022/07/17 03:27:51;;;;;;;1.87;1.43;;;;;23.10;101561.00;;;;2068955;28;20698;-56
2022/07/17 03:28:51;;;;;;;1.80;1.40;;;;;23.10;101562.00;;;;2070686;28;20222;-56
2022/07/17 03:29:52;;;;;;;2.50;1.43;;;;;23.10;101566.00;;;;2069686;28;20284;-56
2022/07/17 03:30:52;;;;;;;2.10;1.47;;;;;23.10;101571.00;;;;2061782;28;20214;-56
2022/07/17 03:31:53;;;;;;;2.50;1.90;;;;;23.10;101572.00;;;;2069795;28;20622;-56
2022/07/17 03:32:53;;;;;;;1.80;1.60;;;;;23.10;101566.00;;;;2069599;28;20591;-56
2022/07/17 03:33:53;;;;;;;2.83;1.33;;;;;23.10;101567.00;;;;2061943;28;20211;-56
2022/07/17 03:34:54;;;;;;;2.60;1.60;;;;;23.10;101569.00;;;;2069466;28;20546;-57
2022/07/17 03:35:54;;;;;;;2.40;1.73;;;;;23.00;101570.00;;;;2065606;28;20271;-56
2022/07/17 03:36:55;;;;;;;2.20;1.60;;;;;23.00;101561.00;;;;2077411;28;20715;-56
2022/07/17 03:37:55;;;;;;;2.00;1.70;;;;;23.00;101572.00;;;;2069951;28;20206;-56
2022/07/17 03:38:55;;;;;;;2.53;1.70;;;;;23.00;101573.00;;;;2070520;28;20206;-56
2022/07/17 03:39:55;;;;;;;2.23;1.63;;;;;23.00;101568.00;;;;2070159;28;20237;-56
2022/07/17 03:40:56;;;;;;;2.33;1.80;;;;;23.10;101578.00;;;;2071533;28;20217;-56
2022/07/17 03:41:56;;;;;;;1.97;1.60;;;;;23.10;101570.00;;;;2078444;28;20209;-56
2022/07/17 03:42:56;;;;;;;2.60;1.60;;;;;23.10;101577.00;;;;2077498;28;20240;-56
2022/07/17 03:43:57;;;;;;;2.17;1.50;;;;;22.60;101571.00;;;;2077999;28;20242;-56
2022/07/17 03:44:57;;;;;;;2.20;1.60;;;;;23.00;101579.00;;;;2078358;28;20210;-57
2022/07/17 03:45:57;;;;;;;2.07;1.87;;;;;23.00;101573.00;;;;2078524;28;20213;-56
2022/07/17 03:46:58;;;;;;;3.03;1.27;;;;;23.00;101579.00;;;;2076227;28;20731;-57
2022/07/17 03:47:58;;;;;;;3.07;1.70;;;;;23.00;101580.00;;;;2076788;28;20686;-56
2022/07/17 03:48:58;;;;;;;2.20;1.67;;;;;23.00;101575.00;;;;2077759;28;20579;-56
2022/07/17 03:49:59;;;;;;;2.00;1.67;;;;;23.00;101570.00;;;;2078395;28;20676;-56
2022/07/17 03:50:59;;;;;;;2.70;1.30;;;;;23.00;101572.00;;;;2078371;28;20610;-56
2022/07/17 03:51:59;;;;;;;2.60;1.57;;;;;23.00;101575.00;;;;2078495;28;20221;-56
2022/07/17 03:53:00;;;;;;;1.77;1.30;;;;;23.00;101574.00;;;;2077532;28;20217;-57
2022/07/17 03:54:00;;;;;;;2.47;1.60;;;;;23.00;101573.00;;;;2077802;28;20222;-56
2022/07/17 03:55:00;;;;;;;3.37;1.63;;;;;23.00;101575.00;;;;2078470;28;20275;-56
2022/07/17 03:56:01;;;;;;;1.83;1.40;;;;;23.00;101573.00;;;;2078204;28;20218;-56
2022/07/17 03:57:01;;;;;;;3.10;1.40;;;;;23.00;101592.00;;;;2077608;28;20702;-56
2022/07/17 03:58:01;;;;;;;2.60;1.30;;;;;23.00;101519.00;;;;2068354;28;20811;-56
2022/07/17 03:59:02;;;;;;;1.40;1.30;;;;;22.50;101574.00;;;;2077616;28;20220;-56
2022/07/17 04:00:02;;;;;;;2.37;1.57;;;;;23.00;101564.00;;;;2070385;28;20248;-56
2022/07/17 04:01:03;;;;;;;2.27;1.43;;;;;23.00;101571.00;;;;2071226;28;20264;-56
2022/07/17 04:02:03;;;;;;;2.80;1.77;;;;;23.00;101575.00;;;;2080162;28;20297;-56
2022/07/17 04:03:04;;;;;;;3.13;1.80;;;;;23.00;101569.00;;;;2080192;28;20296;-56
2022/07/17 04:04:04;;;;;;;2.07;1.50;;;;;23.00;101572.00;;;;2079602;28;21823;-56
2022/07/17 04:05:08;;;;;;;2.07;1.50;;;;;23.00;101567.00;;;;2079291;28;21714;-59
2022/07/17 04:06:09;;;;;;;1.88;1.65;;;;;23.00;101559.00;;;;2079344;28;20630;-57
2022/07/17 04:07:26;;;;;;;1.70;1.40;;;;;23.00;101565.00;;;;2079437;28;20213;-55
2022/07/17 04:08:26;;;;;;;1.98;1.20;;;;;23.00;101560.00;;;;2080185;28;20221;-60
2022/07/17 04:09:27;;;;;;;2.40;1.23;;;;;22.90;101563.00;;;;2080009;28;20266;-59
2022/07/17 04:10:27;;;;;;;2.00;1.70;;;;;22.90;101561.00;;;;2079877;28;20214;-56
2022/07/17 04:11:27;;;;;;;2.10;1.37;;;;;22.90;101569.00;;;;2080010;28;20292;-56
2022/07/17 04:12:28;;;;;;;3.97;1.43;;;;;22.90;101567.00;;;;2080058;28;20209;-56
2022/07/17 04:13:28;;;;;;;2.90;1.60;;;;;22.90;101565.00;;;;2080236;28;20201;-56
2022/07/17 04:14:28;;;;;;;2.83;1.70;;;;;22.90;101561.00;;;;2079884;28;20202;-56
2022/07/17 04:16:47;;;;;;;2.33;1.45;;;;;23.00;101565.00;;;;2080042;28;20205;-56
2022/07/17 04:17:48;;;;;;;4.87;1.60;;;;;23.00;101565.00;;;;2079183;28;20221;-56
2022/07/17 04:18:48;;;;;;;3.07;1.67;;;;;23.00;101566.00;;;;2079832;28;20934;-56
2022/07/17 04:19:48;;;;;;;2.87;1.50;;;;;22.90;101568.00;;;;2079458;28;20218;-56
2022/07/17 04:20:49;;;;;;;2.00;1.50;;;;;22.90;101564.00;;;;2079917;28;20213;-56
2022/07/17 04:21:49;;;;;;;3.40;1.90;;;;;22.90;101562.00;;;;2079961;28;20260;-57
2022/07/17 04:22:49;;;;;;;3.10;1.73;;;;;22.90;101570.00;;;;2079942;28;20206;-56
2022/07/17 04:23:50;;;;;;;2.40;1.70;;;;;22.90;101559.00;;;;2079634;28;20212;-57
2022/07/17 04:24:51;;;;;;;1.70;1.40;;;;;22.90;101560.00;;;;2079865;28;20315;-56
2022/07/17 04:25:51;;;;;;;3.50;1.60;;;;;22.90;101552.00;;;;2079122;28;20300;-57
2022/07/17 04:26:51;;;;;;;2.23;1.47;;;;;22.90;101562.00;;;;2079174;28;20363;-56
2022/07/17 04:27:52;;;;;;;3.70;1.47;;;;;22.90;101564.00;;;;2079094;28;20217;-56
2022/07/17 04:28:52;;;;;;;3.00;1.67;;;;;22.90;101566.00;;;;2080135;28;20248;-56
2022/07/17 04:29:52;;;;;;;2.53;1.43;;;;;22.90;101561.00;;;;2071916;28;20279;-57
2022/07/17 04:30:53;;;;;;;1.93;1.40;;;;;22.90;101567.00;;;;2079095;28;20210;-56
2022/07/17 04:31:53;;;;;;;2.10;1.33;;;;;22.90;101557.00;;;;2075582;28;20303;-57
2022/07/17 04:32:53;;;;;;;1.93;1.40;;;;;22.90;101569.00;;;;2071483;28;20256;-57
2022/07/17 04:33:54;;;;;;;2.20;1.57;;;;;22.90;101567.00;;;;2071733;28;20214;-57
2022/07/17 04:34:54;;;;;;;2.93;1.70;;;;;22.90;101559.00;;;;2071763;28;20233;-55
2022/07/17 04:35:54;;;;;;;2.00;1.47;;;;;22.90;101559.00;;;;2071632;28;20217;-54
2022/07/17 04:36:55;;;;;;;6.20;1.90;;;;;22.90;101564.00;;;;2077691;28;20217;-57
2022/07/17 04:37:55;;;;;;;1.60;1.43;;;;;23.00;101573.00;;;;2078199;28;20221;-57
2022/07/17 04:38:55;;;;;;;2.33;1.60;;;;;22.90;101564.00;;;;2079250;28;20345;-56
2022/07/17 04:39:56;;;;;;;2.63;2.00;;;;;22.90;101572.00;;;;2079885;28;20565;-56
2022/07/17 04:40:57;;;;;;;1.87;1.50;;;;;22.90;101566.00;;;;2079550;28;20575;-56
2022/07/17 04:41:57;;;;;;;2.27;1.67;;;;;23.00;101567.00;;;;2079851;28;20210;-56
2022/07/17 04:42:57;;;;;;;5.43;1.97;;;;;22.90;101567.00;;;;2079781;28;20253;-56
2022/07/17 04:43:58;;;;;;;2.60;1.73;;;;;22.90;101577.00;;;;2079843;28;20241;-56
2022/07/17 04:44:58;;;;;;;2.80;1.67;;;;;22.90;101571.00;;;;2079092;28;20214;-56
2022/07/17 04:45:58;;;;;;;3.83;1.53;;;;;22.90;101566.00;;;;2079201;28;20209;-56
2022/07/17 04:46:59;;;;;;;2.90;1.70;;;;;22.90;101566.00;;;;2079650;28;20205;-56
2022/07/17 04:47:59;;;;;;;2.80;1.47;;;;;23.00;101569.00;;;;2079015;28;20210;-56
2022/07/17 04:48:59;;;;;;;3.03;1.77;;;;;22.90;101573.00;;;;2079049;28;20399;-56
2022/07/17 04:50:00;;;;;;;1.90;1.50;;;;;23.00;101572.00;;;;2078966;28;20217;-56
2022/07/17 04:51:00;;;;;;;2.30;1.40;;;;;23.00;101564.00;;;;2079573;28;20286;-56
2022/07/17 04:52:00;;;;;;;3.67;1.60;;;;;23.00;101567.00;;;;2079569;28;20284;-56
2022/07/17 04:53:01;;;;;;;1.57;1.23;;;;;23.00;101563.00;;;;2079540;28;20213;-56
2022/07/17 04:54:01;;;;;;;2.03;1.60;;;;;23.00;101562.00;;;;2079712;28;20241;-56
2022/07/17 04:55:02;;;;;;;3.63;1.70;;;;;23.00;101565.00;;;;2079364;28;20228;-56
2022/07/17 04:56:02;;;;;;;2.77;1.40;;;;;22.90;101576.00;;;;2079830;28;20225;-56
2022/07/17 04:57:03;;;;;;;3.50;1.63;;;;;23.00;101572.00;;;;2067121;28;20222;-56
2022/07/17 04:58:03;;;;;;;3.20;1.77;;;;;22.90;101569.00;;;;2070215;28;20220;-56
2022/07/17 04:59:04;;;;;;;1.73;1.30;;;;;22.90;101584.00;;;;2079571;28;20289;-56
2022/07/17 05:00:05;;;;;;;4.80;1.73;;;;;22.90;101568.00;;;;2078942;28;20220;-56
2022/07/17 05:01:05;;;;;;;2.72;1.88;;;;;22.90;101565.00;;;;2079579;28;20248;-56